Check out our new BloomSky Weather System.

Active alerts

Houston, TX
  Details for Houston, TX Dense Fog Advisory


Thunder radar  blitzortung!


Rain radar more information rain snow radar


Visit our other weather sites:

Template documentation
and downloads

And another site



Weather Underground History page Text

Daily Summary for March 29, 2017 Units:  English    Metric   Both
« Previous Day
Next Day »
Daily Weekly Monthly Yearly Custom
  High: Low: Average:
Temperature: 81.0 °F 65.8 °F 73.5 °F
Dew Point: 74.8 °F 65.1 °F 69.6 °F
Humidity: 100 % 74 % 88 %
Wind Speed: 17.0 mph 0.0 mph 3.3 mph
Wind Gust: 25.0 mph - -
Wind:- - SSE
Pressure: 29.84 in 29.68 in -
Precipitation: 2.50 in    
Historical Graphs
 
 
Tabular Data for March 29, 2017
Time Temperature Dew Point Pressure Wind Wind Speed Wind Gust Humidity Rainfall Rate (Hourly)
00:00 75.7 °F 70.2 °F 29.73 in SE 10.0 mph 19.0 mph 83 % 0.00 in
00:05 75.7 °F 70.2 °F 29.72 in SE 14.0 mph 24.0 mph 83 % 0.00 in
00:10 75.7 °F 70.2 °F 29.72 in SE 11.0 mph 24.0 mph 83 % 0.00 in
00:15 75.6 °F 70.0 °F 29.72 in SE 12.0 mph 24.0 mph 83 % 0.00 in
00:20 75.6 °F 70.0 °F 29.71 in South 9.0 mph 22.0 mph 83 % 0.00 in
00:25 75.6 °F 70.0 °F 29.71 in SSE 8.0 mph 22.0 mph 83 % 0.00 in
00:30 75.4 °F 69.8 °F 29.71 in SSE 7.0 mph 22.0 mph 83 % 0.00 in
00:35 75.4 °F 69.8 °F 29.71 in SSE 9.0 mph 21.0 mph 83 % 0.00 in
00:40 75.4 °F 70.2 °F 29.71 in ESE 8.0 mph 21.0 mph 84 % 0.00 in
00:45 75.2 °F 70.0 °F 29.70 in SE 7.0 mph 21.0 mph 84 % 0.00 in
00:50 75.2 °F 70.0 °F 29.69 in East 17.0 mph 22.0 mph 84 % 0.00 in
00:55 75.0 °F 69.8 °F 29.70 in SE 11.0 mph 22.0 mph 84 % 0.00 in
01:00 75.0 °F 69.8 °F 29.70 in SSE 7.0 mph 22.0 mph 84 % 0.00 in
01:05 75.0 °F 69.8 °F 29.70 in ESE 14.0 mph 23.0 mph 84 % 0.00 in
01:10 75.0 °F 69.8 °F 29.70 in SSW 11.0 mph 23.0 mph 84 % 0.00 in
01:15 75.0 °F 69.4 °F 29.70 in SE 7.0 mph 23.0 mph 83 % 0.00 in
01:20 74.8 °F 69.3 °F 29.70 in ESE 14.0 mph 18.0 mph 83 % 0.00 in
01:25 74.8 °F 69.3 °F 29.70 in ESE 10.0 mph 18.0 mph 83 % 0.00 in
01:30 74.8 °F 69.3 °F 29.69 in SE 9.0 mph 18.0 mph 83 % 0.00 in
01:35 74.8 °F 69.3 °F 29.70 in SW 6.0 mph 18.0 mph 83 % 0.00 in
01:40 74.8 °F 69.3 °F 29.71 in SSE 7.0 mph 18.0 mph 83 % 0.00 in
01:45 74.8 °F 69.3 °F 29.71 in SE 6.0 mph 18.0 mph 83 % 0.00 in
01:51 74.8 °F 69.3 °F 29.72 in South 9.0 mph 17.0 mph 83 % 0.00 in
01:56 74.8 °F 69.3 °F 29.71 in SSE 10.0 mph 19.0 mph 83 % 0.00 in
02:01 74.8 °F 69.3 °F 29.71 in SSE 11.0 mph 19.0 mph 83 % 0.00 in
02:06 74.8 °F 69.3 °F 29.72 in SSE 11.0 mph 19.0 mph 83 % 0.00 in
02:11 74.8 °F 69.3 °F 29.72 in SE 7.0 mph 17.0 mph 83 % 0.00 in
02:16 74.8 °F 69.3 °F 29.72 in ESE 11.0 mph 18.0 mph 83 % 0.00 in
02:21 74.8 °F 69.3 °F 29.70 in ESE 11.0 mph 18.0 mph 83 % 0.00 in
02:26 74.7 °F 69.1 °F 29.70 in SSW 12.0 mph 18.0 mph 83 % 0.00 in
02:31 74.7 °F 69.1 °F 29.70 in SSW 11.0 mph 17.0 mph 83 % 0.00 in
02:36 74.7 °F 69.1 °F 29.70 in SSW 5.0 mph 17.0 mph 83 % 0.00 in
02:41 74.5 °F 68.9 °F 29.69 in ESE 8.0 mph 15.0 mph 83 % 0.00 in
02:46 74.7 °F 69.1 °F 29.69 in SE 9.0 mph 18.0 mph 83 % 0.00 in
02:51 74.7 °F 69.1 °F 29.69 in SE 13.0 mph 18.0 mph 83 % 0.00 in
02:56 74.7 °F 69.1 °F 29.68 in SE 7.0 mph 18.0 mph 83 % 0.00 in
03:01 74.7 °F 69.1 °F 29.68 in SE 10.0 mph 17.0 mph 83 % 0.00 in
03:06 74.5 °F 68.9 °F 29.68 in ESE 14.0 mph 17.0 mph 83 % 0.00 in
03:11 74.7 °F 69.1 °F 29.68 in ESE 11.0 mph 20.0 mph 83 % 0.00 in
03:16 74.5 °F 68.9 °F 29.69 in SE 9.0 mph 20.0 mph 83 % 0.00 in
03:21 74.5 °F 68.9 °F 29.68 in SSE 13.0 mph 20.0 mph 83 % 0.00 in
03:26 74.5 °F 68.9 °F 29.68 in East 13.0 mph 20.0 mph 83 % 0.00 in
03:31 74.7 °F 69.1 °F 29.68 in South 14.0 mph 20.0 mph 83 % 0.00 in
03:36 74.5 °F 68.9 °F 29.69 in East 8.0 mph 20.0 mph 83 % 0.00 in
03:41 74.5 °F 68.9 °F 29.69 in SE 12.0 mph 20.0 mph 83 % 0.00 in
03:46 74.5 °F 68.9 °F 29.69 in South 8.0 mph 19.0 mph 83 % 0.00 in
03:51 74.5 °F 68.5 °F 29.69 in SE 6.0 mph 19.0 mph 82 % 0.00 in
03:56 74.7 °F 68.7 °F 29.69 in SE 9.0 mph 20.0 mph 82 % 0.00 in
04:01 74.5 °F 68.5 °F 29.70 in ESE 11.0 mph 20.0 mph 82 % 0.00 in
04:06 74.5 °F 68.5 °F 29.72 in SSW 2.0 mph 20.0 mph 82 % 0.00 in
04:11 74.5 °F 68.9 °F 29.75 in SSE 6.0 mph 17.0 mph 83 % 0.00 in
04:16 74.5 °F 68.9 °F 29.77 in SSW 2.0 mph 17.0 mph 83 % 0.00 in
04:21 74.5 °F 68.9 °F 29.77 in SE 4.0 mph 11.0 mph 83 % 0.00 in
04:26 74.5 °F 68.9 °F 29.78 in SSW 5.0 mph 11.0 mph 83 % 0.00 in
04:31 74.7 °F 68.7 °F 29.78 in SSW 10.0 mph 14.0 mph 82 % 0.00 in
04:36 74.7 °F 68.7 °F 29.79 in South 4.0 mph 14.0 mph 82 % 0.00 in
04:41 74.7 °F 68.7 °F 29.81 in SSW 1.0 mph 14.0 mph 82 % 0.00 in
04:46 74.8 °F 68.9 °F 29.81 in SSW 1.0 mph 10.0 mph 82 % 0.00 in
04:51 74.7 °F 68.7 °F 29.81 in South 3.0 mph 8.0 mph 82 % 0.00 in
04:56 74.7 °F 69.1 °F 29.81 in SSE 1.0 mph 8.0 mph 83 % 0.00 in
05:01 74.7 °F 69.1 °F 29.81 in South 2.0 mph 8.0 mph 83 % 0.00 in
05:07 74.7 °F 69.1 °F 29.81 in SE 3.0 mph 7.0 mph 83 % 0.00 in
05:12 74.7 °F 69.1 °F 29.81 in SSE 1.0 mph 7.0 mph 83 % 0.00 in
05:17 74.7 °F 69.1 °F 29.80 in SSE 1.0 mph 7.0 mph 83 % 0.00 in
05:22 74.5 °F 68.9 °F 29.80 in SE 1.0 mph 4.0 mph 83 % 0.00 in
05:27 74.5 °F 68.9 °F 29.80 in Calm   4.0 mph 83 % 0.00 in
05:32 74.1 °F 68.5 °F 29.80 in Calm   4.0 mph 83 % 0.00 in
05:37 73.9 °F 68.7 °F 29.79 in Calm   3.0 mph 84 % 0.00 in
05:42 73.9 °F 68.7 °F 29.79 in Calm   2.0 mph 84 % 0.00 in
05:47 73.9 °F 69.1 °F 29.79 in Calm   2.0 mph 85 % 0.00 in
05:52 73.8 °F 68.9 °F 29.79 in Calm   1.0 mph 85 % 0.00 in
05:57 73.8 °F 68.9 °F 29.78 in Calm   1.0 mph 85 % 0.00 in
06:02 73.6 °F 68.7 °F 29.79 in Calm     85 % 0.00 in
06:07 73.6 °F 68.7 °F 29.79 in Calm     85 % 0.00 in
06:12 73.6 °F 69.1 °F 29.79 in Calm     86 % 0.00 in
06:17 73.4 °F 68.9 °F 29.79 in Calm     86 % 0.00 in
06:22 73.2 °F 68.7 °F 29.79 in Calm     86 % 0.00 in
06:27 73.2 °F 68.7 °F 29.79 in Calm     86 % 0.00 in
06:32 73.0 °F 68.9 °F 29.78 in Calm     87 % 0.00 in
06:37 73.0 °F 68.9 °F 29.79 in Calm   1.0 mph 87 % 0.00 in
06:42 72.9 °F 68.7 °F 29.79 in Calm   1.0 mph 87 % 0.00 in
06:47 72.9 °F 68.7 °F 29.79 in Calm   1.0 mph 87 % 0.00 in
06:52 72.9 °F 69.1 °F 29.78 in SE 1.0 mph   88 % 0.00 in
06:57 72.7 °F 68.9 °F 29.78 in Calm   1.0 mph 88 % 0.00 in
07:02 72.5 °F 68.7 °F 29.78 in East 1.0 mph 1.0 mph 88 % 0.00 in
07:07 72.5 °F 68.7 °F 29.78 in Calm   1.0 mph 88 % 0.00 in
07:12 72.3 °F 68.5 °F 29.78 in Calm   1.0 mph 88 % 0.00 in
07:13 72.3 °F 68.5 °F 29.78 in ESE 1.0 mph 1.0 mph 88 % 0.00 in
07:18 72.3 °F 68.5 °F 29.77 in ENE 1.0 mph 2.0 mph 88 % 0.00 in
07:23 72.3 °F 68.5 °F 29.77 in East 2.0 mph 2.0 mph 88 % 0.00 in
07:28 72.3 °F 68.5 °F 29.78 in Calm   3.0 mph 88 % 0.00 in
07:33 72.3 °F 68.5 °F 29.77 in Calm   3.0 mph 88 % 0.00 in
07:38 72.5 °F 68.7 °F 29.77 in NE 1.0 mph 4.0 mph 88 % 0.00 in
07:43 72.7 °F 68.9 °F 29.78 in Calm   5.0 mph 88 % 0.00 in
07:49 72.7 °F 68.9 °F 29.78 in East 1.0 mph 5.0 mph 88 % 0.00 in
07:54 72.9 °F 69.1 °F 29.79 in ENE 2.0 mph 5.0 mph 88 % 0.00 in
07:59 73.0 °F 68.9 °F 29.78 in East 4.0 mph 4.0 mph 87 % 0.00 in
08:04 73.2 °F 69.1 °F 29.78 in Calm   5.0 mph 87 % 0.00 in
08:09 73.4 °F 69.3 °F 29.79 in ESE 2.0 mph 6.0 mph 87 % 0.00 in
08:14 73.6 °F 69.4 °F 29.79 in SE 2.0 mph 6.0 mph 87 % 0.00 in
08:19 73.4 °F 69.3 °F 29.78 in NE 3.0 mph 6.0 mph 87 % 0.00 in
08:24 73.4 °F 69.3 °F 29.80 in SE 2.0 mph 6.0 mph 87 % 0.00 in
08:29 73.2 °F 69.1 °F 29.80 in Calm   6.0 mph 87 % 0.00 in
08:34 73.2 °F 68.7 °F 29.81 in Calm   7.0 mph 86 % 0.00 in
08:39 73.2 °F 68.7 °F 29.81 in North 1.0 mph 7.0 mph 86 % 0.00 in
08:44 73.2 °F 69.1 °F 29.82 in Calm   7.0 mph 87 % 0.00 in
08:49 73.2 °F 69.1 °F 29.81 in North 2.0 mph 3.0 mph 87 % 0.00 in
08:54 73.2 °F 69.1 °F 29.81 in North 2.0 mph 3.0 mph 87 % 0.00 in
08:59 73.0 °F 68.9 °F 29.81 in NNE 1.0 mph 3.0 mph 87 % 0.00 in
09:04 73.0 °F 68.9 °F 29.80 in NNW 2.0 mph 3.0 mph 87 % 0.00 in
09:09 72.9 °F 69.1 °F 29.79 in North 1.0 mph 4.0 mph 88 % 0.00 in
09:14 72.7 °F 68.9 °F 29.79 in NNW 2.0 mph 5.0 mph 88 % 0.00 in
09:19 72.7 °F 69.3 °F 29.80 in NW 1.0 mph 5.0 mph 89 % 0.00 in
09:24 72.7 °F 69.3 °F 29.81 in NW 2.0 mph 5.0 mph 89 % 0.00 in
09:29 72.1 °F 68.4 °F 29.81 in NNW 1.0 mph 5.0 mph 88 % 0.00 in
09:34 71.8 °F 68.4 °F 29.80 in West 2.0 mph 5.0 mph 89 % 0.00 in
09:39 71.4 °F 68.0 °F 29.80 in NNW 2.0 mph 7.0 mph 89 % 0.00 in
09:44 71.2 °F 68.2 °F 29.80 in NNW 3.0 mph 9.0 mph 90 % 0.00 in
09:49 71.1 °F 68.4 °F 29.80 in NNW 6.0 mph 10.0 mph 91 % 0.00 in
09:54 70.9 °F 68.4 °F 29.79 in ENE 13.0 mph 13.0 mph 92 % 0.00 in
09:59 70.5 °F 68.4 °F 29.78 in NNW 5.0 mph 13.0 mph 93 % 0.00 in
10:04 70.2 °F 68.4 °F 29.79 in WNW 11.0 mph 13.0 mph 94 % 0.02 in
10:09 69.8 °F 68.0 °F 29.81 in WNW 12.0 mph 13.0 mph 94 % 0.04 in
10:14 69.3 °F 67.8 °F 29.81 in NE 9.0 mph 18.0 mph 95 % 0.04 in
10:19 69.6 °F 68.7 °F 29.82 in NW 8.0 mph 18.0 mph 97 % 0.18 in
10:24 68.7 °F 67.3 °F 29.84 in NW 2.0 mph 18.0 mph 95 % 0.38 in
10:29 68.4 °F 67.5 °F 29.83 in East 5.0 mph 17.0 mph 97 % 0.68 in
10:35 66.9 °F 65.7 °F 29.77 in NE 7.0 mph 17.0 mph 96 % 1.19 in
10:40 66.4 °F 65.5 °F 29.72 in ENE 11.0 mph 17.0 mph 97 % 1.68 in
10:45 66.4 °F 65.5 °F 29.73 in WNW 2.0 mph 21.0 mph 97 % 1.84 in
10:50 66.0 °F 65.1 °F 29.77 in East 11.0 mph 25.0 mph 97 % 1.86 in
10:55 66.9 °F 66.4 °F 29.78 in ESE 7.0 mph 25.0 mph 98 % 1.86 in
11:00 68.2 °F 67.8 °F 29.77 in SE 4.0 mph 25.0 mph 99 % 1.86 in
11:05 68.4 °F 67.8 °F 29.78 in ESE 8.0 mph 20.0 mph 98 % 1.85 in
11:10 68.5 °F 68.0 °F 29.78 in ESE 9.0 mph 20.0 mph 98 % 1.83 in
11:15 68.7 °F 68.2 °F 29.78 in NE 10.0 mph 19.0 mph 98 % 1.69 in
11:20 68.7 °F 68.2 °F 29.78 in ENE 4.0 mph 13.0 mph 98 % 1.47 in
11:25 68.7 °F 68.2 °F 29.78 in SE 2.0 mph 13.0 mph 98 % 1.19 in
11:30 68.7 °F 68.2 °F 29.77 in Calm   10.0 mph 98 % 0.68 in
11:35 68.7 °F 68.2 °F 29.78 in SE 2.0 mph 11.0 mph 98 % 0.19 in
11:40 69.1 °F 68.7 °F 29.78 in SE 2.0 mph 11.0 mph 99 % 0.03 in
11:45 69.1 °F 68.7 °F 29.78 in ESE 6.0 mph 11.0 mph 99 % 0.01 in
11:50 69.3 °F 68.9 °F 29.79 in ESE 5.0 mph 10.0 mph 99 % 0.01 in
11:55 69.4 °F 69.1 °F 29.79 in ESE 5.0 mph 12.0 mph 99 % 0.01 in
12:00 69.6 °F 69.3 °F 29.79 in SE 5.0 mph 12.0 mph 99 % 0.01 in
12:05 69.6 °F 69.3 °F 29.81 in ESE 9.0 mph 12.0 mph 99 % 0.02 in
12:10 69.6 °F 69.3 °F 29.80 in SW 3.0 mph 12.0 mph 99 % 0.11 in
12:15 69.3 °F 68.7 °F 29.80 in SE 9.0 mph 16.0 mph 98 % 0.22 in
12:17 69.1 °F 68.5 °F 29.80 in SE 10.0 mph 16.0 mph 98 % 0.22 in
12:22 68.2 °F 67.6 °F 29.81 in SE 12.0 mph 16.0 mph 98 % 0.24 in
12:27 67.3 °F 66.4 °F 29.81 in SSW 6.0 mph 16.0 mph 97 % 0.24 in
12:32 66.4 °F 65.5 °F 29.79 in ESE 6.0 mph 16.0 mph 97 % 0.27 in
12:37 66.4 °F 65.8 °F 29.80 in SE 7.0 mph 16.0 mph 98 % 0.28 in
12:42 66.7 °F 66.4 °F 29.81 in SSE 6.0 mph 14.0 mph 99 % 0.33 in
12:47 66.4 °F 65.8 °F 29.79 in ESE 4.0 mph 13.0 mph 98 % 0.42 in
12:52 66.0 °F 65.5 °F 29.79 in ESE 2.0 mph 13.0 mph 98 % 0.47 in
12:57 66.0 °F 65.7 °F 29.79 in Calm   12.0 mph 99 % 0.50 in
13:02 65.8 °F 65.5 °F 29.79 in SSE 2.0 mph 9.0 mph 99 % 0.53 in
13:07 66.0 °F 65.7 °F 29.79 in Calm   6.0 mph 99 % 0.54 in
13:12 66.2 °F 65.8 °F 29.78 in Calm   4.0 mph 99 % 0.48 in
13:17 66.4 °F 66.0 °F 29.78 in ENE 3.0 mph 3.0 mph 99 % 0.40 in
13:22 66.6 °F 66.2 °F 29.78 in ESE 3.0 mph 6.0 mph 99 % 0.38 in
13:27 67.1 °F 66.7 °F 29.77 in East 1.0 mph 6.0 mph 99 % 0.38 in
13:32 67.8 °F 67.8 °F 29.77 in East 2.0 mph 6.0 mph 100 % 0.35 in
13:37 68.5 °F 68.5 °F 29.77 in East 2.0 mph 6.0 mph 100 % 0.34 in
13:42 69.3 °F 69.3 °F 29.76 in SSE 2.0 mph 4.0 mph 100 % 0.30 in
13:47 70.2 °F 70.2 °F 29.76 in ESE 1.0 mph 4.0 mph 100 % 0.21 in
13:52 70.7 °F 70.7 °F 29.76 in SW 1.0 mph 3.0 mph 100 % 0.16 in
13:57 70.7 °F 70.7 °F 29.75 in East 2.0 mph 5.0 mph 100 % 0.12 in
14:02 71.4 °F 71.4 °F 29.75 in SSE 3.0 mph 5.0 mph 100 % 0.09 in
14:07 72.1 °F 72.1 °F 29.75 in SE 3.0 mph 5.0 mph 100 % 0.06 in
14:12 72.0 °F 71.6 °F 29.75 in SE 1.0 mph 5.0 mph 99 % 0.04 in
14:17 72.7 °F 72.3 °F 29.74 in ESE 2.0 mph 5.0 mph 99 % 0.01 in
14:22 72.9 °F 72.3 °F 29.75 in ENE 2.0 mph 5.0 mph 98 % 0.01 in
14:27 73.2 °F 72.9 °F 29.75 in SE 2.0 mph 6.0 mph 99 % 0.01 in
14:32 73.9 °F 73.6 °F 29.75 in East 4.0 mph 6.0 mph 99 % 0.01 in
14:37 73.8 °F 73.2 °F 29.74 in South 2.0 mph 8.0 mph 98 % 0.01 in
14:42 73.9 °F 73.4 °F 29.74 in Calm   8.0 mph 98 % 0.00 in
14:47 74.7 °F 74.1 °F 29.73 in SSE 1.0 mph 8.0 mph 98 % 0.00 in
14:52 75.0 °F 74.1 °F 29.73 in SSW 1.0 mph 6.0 mph 97 % 0.00 in
14:57 75.6 °F 74.7 °F 29.73 in SE 3.0 mph 5.0 mph 97 % 0.00 in
14:58 75.7 °F 74.8 °F 29.73 in SSE 4.0 mph 5.0 mph 97 % 0.00 in
15:03 75.9 °F 74.7 °F 29.73 in SE 2.0 mph 5.0 mph 96 % 0.00 in
15:08 75.9 °F 74.1 °F 29.73 in South 2.0 mph 6.0 mph 94 % 0.00 in
15:13 76.5 °F 73.9 °F 29.72 in South 2.0 mph 6.0 mph 92 % 0.00 in
15:18 76.8 °F 73.6 °F 29.72 in SE 3.0 mph 6.0 mph 90 % 0.00 in
15:23 76.8 °F 73.0 °F 29.71 in ESE 4.0 mph 6.0 mph 88 % 0.00 in
15:28 77.2 °F 73.0 °F 29.71 in South 5.0 mph 6.0 mph 87 % 0.00 in
15:33 77.7 °F 73.2 °F 29.71 in Calm   6.0 mph 86 % 0.00 in
15:38 78.4 °F 73.2 °F 29.70 in South 4.0 mph 6.0 mph 84 % 0.00 in
15:43 78.6 °F 73.0 °F 29.70 in South 3.0 mph 6.0 mph 83 % 0.00 in
15:48 78.6 °F 73.4 °F 29.70 in SSE 1.0 mph 6.0 mph 84 % 0.00 in
15:53 79.0 °F 73.0 °F 29.69 in ENE 5.0 mph 6.0 mph 82 % 0.00 in
15:58 78.8 °F 72.9 °F 29.69 in ESE 1.0 mph 6.0 mph 82 % 0.00 in
16:03 78.4 °F 72.5 °F 29.69 in East 2.0 mph 7.0 mph 82 % 0.00 in
16:08 78.8 °F 73.2 °F 29.69 in ESE 3.0 mph 7.0 mph 83 % 0.00 in
16:13 79.3 °F 73.0 °F 29.70 in South 4.0 mph 7.0 mph 81 % 0.00 in
16:18 79.9 °F 73.2 °F 29.70 in SE 1.0 mph 6.0 mph 80 % 0.00 in
16:23 79.9 °F 73.2 °F 29.70 in Calm   5.0 mph 80 % 0.00 in
16:28 79.9 °F 73.2 °F 29.70 in SE 2.0 mph 5.0 mph 80 % 0.00 in
16:33 80.1 °F 73.0 °F 29.70 in ENE 1.0 mph 5.0 mph 79 % 0.00 in
16:38 80.1 °F 72.1 °F 29.70 in East 2.0 mph 5.0 mph 77 % 0.00 in
16:43 79.9 °F 72.0 °F 29.70 in Calm   4.0 mph 77 % 0.00 in
16:48 80.1 °F 73.0 °F 29.69 in NE 2.0 mph 4.0 mph 79 % 0.00 in
16:53 80.6 °F 72.3 °F 29.69 in Calm   3.0 mph 76 % 0.00 in
16:58 81.0 °F 73.8 °F 29.69 in ENE 1.0 mph 5.0 mph 79 % 0.00 in
17:03 80.8 °F 72.9 °F 29.69 in Calm   5.0 mph 77 % 0.00 in
17:08 80.8 °F 72.9 °F 29.70 in ENE 4.0 mph 5.0 mph 77 % 0.00 in
17:13 80.4 °F 72.9 °F 29.70 in SE 2.0 mph 5.0 mph 78 % 0.00 in
17:18 80.2 °F 72.3 °F 29.70 in SE 1.0 mph 5.0 mph 77 % 0.00 in
17:23 79.9 °F 72.0 °F 29.70 in NE 3.0 mph 5.0 mph 77 % 0.00 in
17:28 79.5 °F 72.1 °F 29.70 in NE 1.0 mph 5.0 mph 78 % 0.00 in
17:33 79.5 °F 71.6 °F 29.70 in Calm   5.0 mph 77 % 0.00 in
17:38 79.5 °F 71.2 °F 29.70 in ENE 1.0 mph 5.0 mph 76 % 0.00 in
17:43 79.5 °F 71.6 °F 29.70 in ENE 1.0 mph 5.0 mph 77 % 0.00 in
17:48 79.5 °F 70.9 °F 29.70 in ESE 1.0 mph 4.0 mph 75 % 0.00 in
17:53 79.3 °F 71.1 °F 29.70 in Calm   4.0 mph 76 % 0.00 in
17:58 79.7 °F 71.4 °F 29.70 in Calm   4.0 mph 76 % 0.00 in
18:03 80.1 °F 71.1 °F 29.70 in Calm   4.0 mph 74 % 0.00 in
18:08 80.1 °F 71.1 °F 29.70 in Calm   2.0 mph 74 % 0.00 in
18:13 79.9 °F 71.2 °F 29.70 in Calm   2.0 mph 75 % 0.00 in
18:18 79.9 °F 71.6 °F 29.71 in Calm   3.0 mph 76 % 0.00 in
18:24 79.9 °F 71.6 °F 29.71 in ENE 2.0 mph 3.0 mph 76 % 0.00 in
18:29 79.7 °F 72.1 °F 29.71 in SE 3.0 mph 3.0 mph 78 % 0.00 in
18:34 79.2 °F 72.1 °F 29.71 in SSE 4.0 mph 4.0 mph 79 % 0.00 in
18:39 79.0 °F 72.3 °F 29.71 in Calm   4.0 mph 80 % 0.00 in
18:44 79.0 °F 72.3 °F 29.71 in Calm   4.0 mph 80 % 0.00 in
18:49 79.0 °F 72.3 °F 29.71 in Calm   4.0 mph 80 % 0.00 in
18:54 79.2 °F 72.1 °F 29.72 in Calm   3.0 mph 79 % 0.00 in
18:59 79.3 °F 72.3 °F 29.72 in Calm   2.0 mph 79 % 0.00 in
19:01 79.5 °F 72.1 °F 29.72 in ESE 1.0 mph 2.0 mph 78 % 0.00 in
19:06 79.5 °F 72.5 °F 29.72 in Calm   2.0 mph 79 % 0.00 in
19:11 79.3 °F 72.0 °F 29.72 in Calm   2.0 mph 78 % 0.00 in
19:17 79.2 °F 72.1 °F 29.73 in Calm   2.0 mph 79 % 0.00 in
19:22 79.0 °F 72.0 °F 29.73 in Calm   1.0 mph 79 % 0.00 in
19:25 78.8 °F 72.1 °F 29.73 in ESE 1.0 mph 1.0 mph 80 % 0.00 in
19:30 78.4 °F 71.8 °F 29.73 in Calm   2.0 mph 80 % 0.00 in
19:35 77.9 °F 71.6 °F 29.73 in Calm   2.0 mph 81 % 0.00 in
19:40 77.4 °F 71.4 °F 29.73 in Calm   2.0 mph 82 % 0.00 in
19:45 77.0 °F 71.4 °F 29.73 in Calm   1.0 mph 83 % 0.00 in
19:50 76.6 °F 71.4 °F 29.73 in Calm   1.0 mph 84 % 0.00 in
19:55 76.1 °F 71.2 °F 29.74 in Calm   3.0 mph 85 % 0.00 in
20:00 75.7 °F 71.2 °F 29.74 in Calm   3.0 mph 86 % 0.00 in
20:05 75.4 °F 71.2 °F 29.74 in Calm   3.0 mph 87 % 0.00 in
20:10 75.0 °F 71.2 °F 29.75 in Calm   2.0 mph 88 % 0.00 in
20:15 74.7 °F 70.9 °F 29.75 in Calm   1.0 mph 88 % 0.00 in
20:20 74.5 °F 71.1 °F 29.75 in Calm   1.0 mph 89 % 0.00 in
20:25 74.1 °F 71.1 °F 29.75 in Calm   1.0 mph 90 % 0.00 in
20:30 73.9 °F 70.9 °F 29.75 in Calm   1.0 mph 90 % 0.00 in
20:35 73.6 °F 70.7 °F 29.76 in Calm   1.0 mph 91 % 0.00 in
20:40 73.2 °F 70.5 °F 29.76 in Calm   1.0 mph 91 % 0.00 in
20:45 73.0 °F 70.3 °F 29.76 in Calm     91 % 0.00 in
20:50 72.7 °F 70.2 °F 29.77 in Calm     92 % 0.00 in
20:55 72.7 °F 70.5 °F 29.77 in Calm   1.0 mph 93 % 0.00 in
21:00 72.7 °F 70.5 °F 29.77 in ESE 2.0 mph 2.0 mph 93 % 0.00 in
21:05 72.7 °F 70.9 °F 29.77 in Calm   2.0 mph 94 % 0.00 in
21:10 72.7 °F 70.9 °F 29.78 in Calm   2.0 mph 94 % 0.00 in
21:15 72.3 °F 70.2 °F 29.78 in Calm   2.0 mph 93 % 0.00 in
21:20 72.0 °F 69.8 °F 29.78 in Calm   1.0 mph 93 % 0.00 in
21:25 71.8 °F 70.0 °F 29.78 in Calm   1.0 mph 94 % 0.00 in
21:30 71.6 °F 69.8 °F 29.78 in Calm   1.0 mph 94 % 0.00 in
21:35 71.4 °F 69.6 °F 29.78 in Calm   1.0 mph 94 % 0.00 in
21:40 71.4 °F 70.0 °F 29.78 in Calm   1.0 mph 95 % 0.00 in
21:45 71.2 °F 69.8 °F 29.79 in Calm   1.0 mph 95 % 0.00 in
21:50 71.1 °F 69.6 °F 29.79 in Calm   1.0 mph 95 % 0.00 in
21:55 70.9 °F 69.4 °F 29.79 in Calm   1.0 mph 95 % 0.00 in
22:00 70.7 °F 69.3 °F 29.79 in Calm   1.0 mph 95 % 0.00 in
22:05 70.5 °F 69.1 °F 29.79 in Calm   1.0 mph 95 % 0.00 in
22:10 70.2 °F 68.7 °F 29.80 in Calm     95 % 0.00 in
22:15 70.0 °F 68.7 °F 29.80 in Calm     96 % 0.00 in
22:20 70.0 °F 68.7 °F 29.79 in Calm   1.0 mph 96 % 0.00 in
22:25 69.6 °F 68.4 °F 29.80 in Calm   1.0 mph 96 % 0.00 in
22:30 69.3 °F 68.0 °F 29.80 in Calm   1.0 mph 96 % 0.00 in
22:35 69.1 °F 67.8 °F 29.80 in Calm     96 % 0.00 in
22:40 68.9 °F 67.6 °F 29.80 in Calm     96 % 0.00 in
22:45 68.7 °F 67.5 °F 29.80 in Calm     96 % 0.00 in
22:50 68.4 °F 67.1 °F 29.81 in Calm     96 % 0.00 in
22:55 68.4 °F 67.5 °F 29.80 in Calm     97 % 0.00 in
23:01 68.2 °F 67.3 °F 29.80 in Calm     97 % 0.00 in
23:06 68.2 °F 67.3 °F 29.81 in Calm     97 % 0.00 in
23:11 68.0 °F 67.1 °F 29.81 in Calm     97 % 0.00 in
23:16 67.8 °F 66.9 °F 29.81 in Calm     97 % 0.00 in
23:21 67.6 °F 66.7 °F 29.81 in Calm   1.0 mph 97 % 0.00 in
23:26 67.5 °F 66.6 °F 29.81 in Calm   1.0 mph 97 % 0.00 in
23:31 67.3 °F 66.4 °F 29.81 in Calm   1.0 mph 97 % 0.00 in
23:36 67.3 °F 66.4 °F 29.81 in Calm     97 % 0.00 in
23:41 67.3 °F 66.4 °F 29.81 in Calm     97 % 0.00 in
23:46 66.9 °F 66.0 °F 29.80 in Calm     97 % 0.00 in
23:51 66.7 °F 65.8 °F 29.80 in Calm     97 % 0.00 in
23:56 66.7 °F 65.8 °F 29.80 in Calm     97 % 0.00 in
Spring, Texas: Villages of Bridgestone
Compliments of Weather Underground - 2.75 mb

Script developed by  Jim McMurry - jmcmurry@mwt.net Adapted for the template by  Wim van der Kuil - Leuven-Template.eu

You find our weather info also at:

UK Metoffice

WeatherCloud

Weather Underground

Mid-South Weather Network

AWEKAS

Citizen Weather Observer Program (CWOP)

HAMweather, WeatherForYou, PWS Weather

Equipment we use:

Weather-station
Davis Vantage Vue

Weather-program
Meteohub

Weather-server
Debian 7.9 x86 (Guest)

Provider
DreamHost

Davis Vantage Vue

Meteohub

Debian 7.9 x86 (Guest)

DreamHost